Time;durP1;ratioP1;P1;durP2;ratioP2;P2;SDS_P1;SDS_P2;PMS_P1;PMS_P2;Temp;Humidity;BMP_temperature;BMP_pressure;BME280_temperature;BME280_humidity;BME280_pressure;Samples;Min_cycle;Max_cycle;Signal;HPM_P1;HPM_P2
2021/09/16 00:02:16;;;;;;;41.92;23.55;;;;;;;;;;5079430;28;20115;-45
2021/09/16 00:04:42;;;;;;;33.30;18.35;;;;;;;;;;5079126;28;20078;-47
2021/09/16 00:07:10;;;;;;;31.27;17.73;;;;;;;;;;5079326;28;20469;-47
2021/09/16 00:09:37;;;;;;;33.63;16.15;;;;;;;;;;5079293;28;20028;-47
2021/09/16 00:12:03;;;;;;;103.18;54.13;;;;;;;;;;5079155;28;20028;-49
2021/09/16 00:14:29;;;;;;;56.28;31.23;;;;;;;;;;5079138;28;20066;-50
2021/09/16 00:16:57;;;;;;;62.50;39.72;;;;;;;;;;5079230;28;20031;-48
2021/09/16 00:19:26;;;;;;;50.85;23.58;;;;;;;;;;5079146;28;20024;-46
2021/09/16 00:21:52;;;;;;;43.08;27.30;;;;;;;;;;5079140;28;20017;-48
2021/09/16 00:24:18;;;;;;;26.60;17.75;;;;;;;;;;5079085;28;20119;-47
2021/09/16 00:26:44;;;;;;;69.45;41.58;;;;;;;;;;5079094;28;20387;-45
2021/09/16 00:29:11;;;;;;;67.55;53.30;;;;;;;;;;5079013;28;20024;-50
2021/09/16 00:31:37;;;;;;;113.63;78.35;;;;;;;;;;5079322;28;20414;-48
2021/09/16 00:34:03;;;;;;;75.18;55.85;;;;;;;;;;5078811;28;20037;-46
2021/09/16 00:36:29;;;;;;;54.55;40.95;;;;;;;;;;5078906;28;20028;-46
2021/09/16 00:38:56;;;;;;;40.03;25.17;;;;;;;;;;5078904;28;20033;-45
2021/09/16 00:41:22;;;;;;;33.10;23.60;;;;;;;;;;5078328;28;20016;-45
2021/09/16 00:43:48;;;;;;;41.67;24.98;;;;;;;;;;5075257;28;20380;-45
2021/09/16 00:46:14;;;;;;;29.90;21.17;;;;;;;;;;5075972;28;20020;-48
2021/09/16 00:48:40;;;;;;;23.70;14.38;;;;;;;;;;5075573;28;20417;-45
2021/09/16 00:51:06;;;;;;;25.45;15.27;;;;;;;;;;5075586;28;20035;-47
2021/09/16 00:53:33;;;;;;;26.83;18.65;;;;;;;;;;5075548;28;20021;-49
2021/09/16 00:56:00;;;;;;;29.27;14.35;;;;;;;;;;5075621;28;20503;-49
2021/09/16 00:58:27;;;;;;;23.45;13.15;;;;;;;;;;5075395;28;20065;-45
2021/09/16 01:00:55;;;;;;;23.80;13.02;;;;;;;;;;5075569;28;20025;-49
2021/09/16 01:03:22;;;;;;;39.05;24.50;;;;;;;;;;5075247;28;20043;-46
2021/09/16 01:05:49;;;;;;;31.60;22.10;;;;;;;;;;5075390;28;20495;-45
2021/09/16 01:08:18;;;;;;;56.25;36.88;;;;;;;;;;5075411;28;20064;-45
2021/09/16 01:10:44;;;;;;;61.40;39.20;;;;;;;;;;5075262;28;20020;-45
2021/09/16 01:13:10;;;;;;;70.13;43.80;;;;;;;;;;5075132;28;20028;-45
2021/09/16 01:15:37;;;;;;;62.13;35.83;;;;;;;;;;5075199;28;20024;-46
2021/09/16 01:18:03;;;;;;;57.63;35.22;;;;;;;;;;5074923;28;20036;-46
2021/09/16 01:20:30;;;;;;;37.88;26.30;;;;;;;;;;5075167;28;20020;-45
2021/09/16 01:22:56;;;;;;;40.47;26.48;;;;;;;;;;5074955;28;20044;-45
2021/09/16 01:25:26;;;;;;;54.95;38.78;;;;;;;;;;5075005;28;20020;-47
2021/09/16 01:27:54;;;;;;;75.50;57.25;;;;;;;;;;5074962;28;20056;-46
2021/09/16 01:30:20;;;;;;;86.75;67.43;;;;;;;;;;5075030;28;20027;-44
2021/09/16 01:32:47;;;;;;;91.45;76.60;;;;;;;;;;5074804;28;20477;-44
2021/09/16 01:35:13;;;;;;;113.55;90.50;;;;;;;;;;5074813;28;20024;-45
2021/09/16 01:37:39;;;;;;;92.65;74.53;;;;;;;;;;5074740;28;20032;-45
2021/09/16 01:40:06;;;;;;;49.55;41.28;;;;;;;;;;5074842;28;20020;-45
2021/09/16 01:42:32;;;;;;;47.88;38.40;;;;;;;;;;5074585;28;20035;-50
2021/09/16 01:45:00;;;;;;;75.22;47.33;;;;;;;;;;5074648;28;20056;-46
2021/09/16 01:47:27;;;;;;;75.35;52.65;;;;;;;;;;5074543;28;20061;-45
2021/09/16 01:49:53;;;;;;;52.95;42.42;;;;;;;;;;5074457;28;20086;-47
2021/09/16 01:52:19;;;;;;;37.55;29.85;;;;;;;;;;5074515;28;20383;-45
2021/09/16 01:54:45;;;;;;;42.72;33.20;;;;;;;;;;5073301;28;20051;-44
2021/09/16 01:57:11;;;;;;;38.20;28.35;;;;;;;;;;5074184;28;20040;-44
2021/09/16 01:59:37;;;;;;;38.20;28.20;;;;;;;;;;5074571;28;20035;-45
2021/09/16 02:02:03;;;;;;;27.00;23.65;;;;;;;;;;5074321;28;20036;-45
2021/09/16 02:04:29;;;;;;;51.53;36.63;;;;;;;;;;5074030;28;20029;-48
2021/09/16 02:06:55;;;;;;;28.70;19.90;;;;;;;;;;5074185;28;20031;-47
2021/09/16 02:09:21;;;;;;;26.42;19.92;;;;;;;;;;5074229;28;20055;-44
2021/09/16 02:11:47;;;;;;;23.48;17.23;;;;;;;;;;5074152;28;20052;-51
2021/09/16 02:14:14;;;;;;;22.10;14.65;;;;;;;;;;5074080;28;20396;-47
2021/09/16 02:16:40;;;;;;;29.30;17.88;;;;;;;;;;5074262;28;20025;-50
2021/09/16 02:19:06;;;;;;;20.80;13.88;;;;;;;;;;5073844;28;20121;-51
2021/09/16 02:21:32;;;;;;;25.70;16.55;;;;;;;;;;5074101;28;20029;-49
2021/09/16 02:23:58;;;;;;;19.90;13.43;;;;;;;;;;5073885;28;20044;-49
2021/09/16 02:26:24;;;;;;;19.98;12.38;;;;;;;;;;5073976;28;20479;-46
2021/09/16 02:28:50;;;;;;;20.55;14.02;;;;;;;;;;5073730;28;20025;-50
2021/09/16 02:31:16;;;;;;;22.10;14.60;;;;;;;;;;5073741;28;20081;-49
2021/09/16 02:33:42;;;;;;;18.75;13.35;;;;;;;;;;5073676;28;20039;-49
2021/09/16 02:36:08;;;;;;;22.17;13.25;;;;;;;;;;5073848;28;20380;-49
2021/09/16 02:38:34;;;;;;;22.20;13.70;;;;;;;;;;5073626;28;20032;-51
2021/09/16 02:41:00;;;;;;;22.35;14.55;;;;;;;;;;5073725;28;20495;-50
2021/09/16 02:43:26;;;;;;;25.55;12.82;;;;;;;;;;5073476;28;20029;-50
2021/09/16 02:45:53;;;;;;;23.15;13.95;;;;;;;;;;5073591;28;20021;-50
2021/09/16 02:48:19;;;;;;;21.48;14.32;;;;;;;;;;5073595;28;20024;-50
2021/09/16 02:50:47;;;;;;;17.85;13.23;;;;;;;;;;5073574;28;20027;-50
2021/09/16 02:53:13;;;;;;;19.10;13.95;;;;;;;;;;5073419;28;20024;-49
2021/09/16 02:55:39;;;;;;;24.00;14.18;;;;;;;;;;5073600;28;20436;-47
2021/09/16 02:58:05;;;;;;;20.23;13.98;;;;;;;;;;5073396;28;20028;-49
2021/09/16 03:00:32;;;;;;;22.77;13.75;;;;;;;;;;5073298;28;20028;-50
2021/09/16 03:02:58;;;;;;;24.85;14.75;;;;;;;;;;5073498;28;20032;-45
2021/09/16 03:05:24;;;;;;;20.00;13.82;;;;;;;;;;5072863;28;20025;-49
2021/09/16 03:07:50;;;;;;;28.02;14.02;;;;;;;;;;5073352;28;20031;-50
2021/09/16 03:10:16;;;;;;;24.42;14.02;;;;;;;;;;5073265;28;20025;-49
2021/09/16 03:12:43;;;;;;;21.33;14.13;;;;;;;;;;5073216;28;20099;-49
2021/09/16 03:15:09;;;;;;;24.20;14.18;;;;;;;;;;5073135;28;20027;-48
2021/09/16 03:17:37;;;;;;;20.92;12.70;;;;;;;;;;5073257;28;20033;-49
2021/09/16 03:20:06;;;;;;;24.50;13.52;;;;;;;;;;5071954;28;20032;-48
2021/09/16 03:22:35;;;;;;;18.42;13.73;;;;;;;;;;5073044;28;20518;-46
2021/09/16 03:25:01;;;;;;;22.85;14.07;;;;;;;;;;5073080;28;20501;-48
2021/09/16 03:27:27;;;;;;;21.30;14.85;;;;;;;;;;5073598;28;20059;-48
2021/09/16 03:29:53;;;;;;;25.02;13.90;;;;;;;;;;5073281;28;20025;-50
2021/09/16 03:32:21;;;;;;;22.23;15.88;;;;;;;;;;5073300;28;20029;-46
2021/09/16 03:34:47;;;;;;;24.08;15.55;;;;;;;;;;5072970;28;20042;-47
2021/09/16 03:37:13;;;;;;;29.58;15.02;;;;;;;;;;5073205;28;20484;-48
2021/09/16 03:39:40;;;;;;;25.65;14.38;;;;;;;;;;5072982;28;20086;-46
2021/09/16 03:42:06;;;;;;;22.35;14.15;;;;;;;;;;5072778;28;20016;-44
2021/09/16 03:44:36;;;;;;;25.67;15.07;;;;;;;;;;5072928;28;20035;-46
2021/09/16 03:47:02;;;;;;;22.83;14.98;;;;;;;;;;5072821;28;20028;-46
2021/09/16 03:49:28;;;;;;;19.15;14.48;;;;;;;;;;5072822;28;20025;-47
2021/09/16 03:51:54;;;;;;;20.65;14.48;;;;;;;;;;5072759;28;20028;-48
2021/09/16 03:54:20;;;;;;;24.73;15.07;;;;;;;;;;5072819;28;20024;-48
2021/09/16 03:56:49;;;;;;;25.90;14.98;;;;;;;;;;5072750;28;20025;-48
2021/09/16 03:59:15;;;;;;;25.13;15.23;;;;;;;;;;5072653;28;20058;-48
2021/09/16 04:01:41;;;;;;;20.05;14.88;;;;;;;;;;5072950;28;20449;-47
2021/09/16 04:04:07;;;;;;;26.00;14.82;;;;;;;;;;5072621;28;20035;-46
2021/09/16 04:06:33;;;;;;;26.23;15.13;;;;;;;;;;5072649;28;20020;-46
2021/09/16 04:08:59;;;;;;;22.05;14.70;;;;;;;;;;5072682;28;20082;-47
2021/09/16 04:11:28;;;;;;;20.75;14.10;;;;;;;;;;5071277;28;20027;-46
2021/09/16 04:13:54;;;;;;;23.00;15.27;;;;;;;;;;5072431;28;20054;-48
2021/09/16 04:16:20;;;;;;;26.25;14.13;;;;;;;;;;5072662;28;20029;-50
2021/09/16 04:18:46;;;;;;;28.42;15.15;;;;;;;;;;5075751;28;20067;-46
2021/09/16 04:21:12;;;;;;;28.65;14.73;;;;;;;;;;5076505;28;20029;-46
2021/09/16 04:23:38;;;;;;;30.25;15.48;;;;;;;;;;5076214;28;20041;-46
2021/09/16 04:26:04;;;;;;;25.00;15.70;;;;;;;;;;5076105;28;20023;-47
2021/09/16 04:28:32;;;;;;;31.48;15.80;;;;;;;;;;5076082;28;20026;-46
2021/09/16 04:30:58;;;;;;;26.58;15.82;;;;;;;;;;5075996;28;20039;-47
2021/09/16 04:33:24;;;;;;;24.15;15.77;;;;;;;;;;5075856;28;20028;-45
2021/09/16 04:35:50;;;;;;;23.50;15.30;;;;;;;;;;5075935;28;20033;-48
2021/09/16 04:38:17;;;;;;;25.55;16.73;;;;;;;;;;5076008;28;20033;-48
2021/09/16 04:40:43;;;;;;;21.15;15.40;;;;;;;;;;5075977;28;20021;-46
2021/09/16 04:43:09;;;;;;;28.45;16.50;;;;;;;;;;5075883;28;20025;-45
2021/09/16 04:45:35;;;;;;;23.95;15.73;;;;;;;;;;5075725;28;20021;-47
2021/09/16 04:48:01;;;;;;;28.63;17.70;;;;;;;;;;5075744;28;20024;-48
2021/09/16 04:50:28;;;;;;;62.88;18.45;;;;;;;;;;5075563;28;20464;-46
2021/09/16 04:52:54;;;;;;;31.55;16.55;;;;;;;;;;5075762;28;20373;-47
2021/09/16 04:55:20;;;;;;;48.53;21.20;;;;;;;;;;5075950;28;20020;-49
2021/09/16 04:57:46;;;;;;;27.90;16.33;;;;;;;;;;5075502;28;20024;-47
2021/09/16 05:00:12;;;;;;;25.27;16.42;;;;;;;;;;5075513;28;20020;-46
2021/09/16 05:02:39;;;;;;;27.63;16.25;;;;;;;;;;5075589;28;20040;-46
2021/09/16 05:05:08;;;;;;;28.40;16.95;;;;;;;;;;5073486;28;20048;-46
2021/09/16 05:07:34;;;;;;;28.52;17.92;;;;;;;;;;5054913;28;20033;-45
2021/09/16 05:10:01;;;;;;;25.55;16.45;;;;;;;;;;5054757;28;20017;-48
2021/09/16 05:12:27;;;;;;;27.77;17.70;;;;;;;;;;5054863;28;20099;-45
2021/09/16 05:14:53;;;;;;;29.95;16.85;;;;;;;;;;5053452;28;20024;-46
2021/09/16 05:17:19;;;;;;;32.08;16.67;;;;;;;;;;5054479;28;20444;-46
2021/09/16 05:19:45;;;;;;;28.02;17.70;;;;;;;;;;5055137;28;20029;-47
2021/09/16 05:22:13;;;;;;;27.30;16.88;;;;;;;;;;5055287;28;20029;-46
2021/09/16 05:24:40;;;;;;;29.35;16.27;;;;;;;;;;5055350;28;20116;-46
2021/09/16 05:27:06;;;;;;;27.75;15.60;;;;;;;;;;5055063;28;20021;-46
2021/09/16 05:29:32;;;;;;;26.02;15.80;;;;;;;;;;5054769;28;20021;-48
2021/09/16 05:31:58;;;;;;;31.23;16.38;;;;;;;;;;5055226;28;20465;-47
2021/09/16 05:34:24;;;;;;;26.63;15.00;;;;;;;;;;5054866;28;20025;-46
2021/09/16 05:36:50;;;;;;;25.40;15.88;;;;;;;;;;5054921;28;20037;-45
2021/09/16 05:39:16;;;;;;;27.02;14.90;;;;;;;;;;5055226;28;20124;-46
2021/09/16 05:41:42;;;;;;;27.30;14.10;;;;;;;;;;5054968;28;20032;-46
2021/09/16 05:44:08;;;;;;;26.20;14.68;;;;;;;;;;5054760;28;20025;-46
2021/09/16 05:46:34;;;;;;;28.15;14.95;;;;;;;;;;5054762;28;20016;-45
2021/09/16 05:49:00;;;;;;;27.25;15.52;;;;;;;;;;5054912;28;20099;-45
2021/09/16 05:51:27;;;;;;;29.88;14.85;;;;;;;;;;5054664;28;20394;-45
2021/09/16 05:53:53;;;;;;;23.33;14.63;;;;;;;;;;5054763;28;20025;-46
2021/09/16 05:56:19;;;;;;;22.17;13.73;;;;;;;;;;5055055;28;20024;-44
2021/09/16 05:58:45;;;;;;;28.75;14.27;;;;;;;;;;5054365;28;20052;-47
2021/09/16 06:01:11;;;;;;;28.60;15.00;;;;;;;;;;5054360;28;20104;-49
2021/09/16 06:03:37;;;;;;;26.33;13.23;;;;;;;;;;5054436;28;20099;-47
2021/09/16 06:06:03;;;;;;;26.73;12.73;;;;;;;;;;5054284;28;20028;-47
2021/09/16 06:08:29;;;;;;;20.80;12.65;;;;;;;;;;5054625;28;20033;-46
2021/09/16 06:10:55;;;;;;;20.88;12.07;;;;;;;;;;5054450;28;20349;-46
2021/09/16 06:13:21;;;;;;;17.55;11.15;;;;;;;;;;5054353;28;20036;-47
2021/09/16 06:15:50;;;;;;;26.85;12.07;;;;;;;;;;5054352;28;20027;-46
2021/09/16 06:18:16;;;;;;;18.38;10.70;;;;;;;;;;5054191;28;20048;-45
2021/09/16 06:20:42;;;;;;;19.25;10.80;;;;;;;;;;5054301;28;20460;-48
2021/09/16 06:23:08;;;;;;;22.67;10.90;;;;;;;;;;5054188;28;20044;-46
2021/09/16 06:25:34;;;;;;;16.35;9.82;;;;;;;;;;5054348;28;20056;-46
2021/09/16 06:28:00;;;;;;;17.73;10.00;;;;;;;;;;5054291;28;20044;-48
2021/09/16 06:30:26;;;;;;;16.27;9.77;;;;;;;;;;5054049;28;20461;-45
2021/09/16 06:32:59;;;;;;;19.88;9.13;;;;;;;;;;5053963;28;20362;-46
2021/09/16 06:35:25;;;;;;;13.43;8.88;;;;;;;;;;5053971;28;20025;-46
2021/09/16 06:37:51;;;;;;;14.93;8.90;;;;;;;;;;5054082;28;20048;-46
2021/09/16 06:40:19;;;;;;;17.58;8.88;;;;;;;;;;5053301;28;20104;-46
2021/09/16 06:42:46;;;;;;;16.40;9.68;;;;;;;;;;5053961;28;20039;-48
2021/09/16 06:45:12;;;;;;;17.40;9.27;;;;;;;;;;5053890;28;20017;-46
2021/09/16 06:47:38;;;;;;;22.63;9.70;;;;;;;;;;5053765;28;20021;-46
2021/09/16 06:50:05;;;;;;;18.90;9.85;;;;;;;;;;5053941;28;20021;-48
2021/09/16 06:52:31;;;;;;;14.27;9.30;;;;;;;;;;5053770;28;20049;-46
2021/09/16 06:54:58;;;;;;;16.70;8.82;;;;;;;;;;5053964;28;20025;-47
2021/09/16 06:57:24;;;;;;;13.95;8.20;;;;;;;;;;5053718;28;20036;-47
2021/09/16 06:59:50;;;;;;;15.55;8.32;;;;;;;;;;5053552;28;20037;-46
2021/09/16 07:02:16;;;;;;;12.60;8.57;;;;;;;;;;5053731;28;20074;-44
2021/09/16 07:04:42;;;;;;;16.02;8.40;;;;;;;;;;5053406;28;20373;-45
2021/09/16 07:07:08;;;;;;;18.75;9.02;;;;;;;;;;5053493;28;20040;-45
2021/09/16 07:09:36;;;;;;;12.65;8.20;;;;;;;;;;5053430;28;20107;-45
2021/09/16 07:12:02;;;;;;;18.30;8.48;;;;;;;;;;5053349;28;20029;-46
2021/09/16 07:14:30;;;;;;;18.88;7.65;;;;;;;;;;5053261;28;20366;-47
2021/09/16 07:16:56;;;;;;;15.90;7.18;;;;;;;;;;5053279;28;20549;-46
2021/09/16 07:19:22;;;;;;;12.57;7.05;;;;;;;;;;5053265;28;20068;-46
2021/09/16 07:21:48;;;;;;;15.35;8.25;;;;;;;;;;5053311;28;20064;-46
2021/09/16 07:24:15;;;;;;;21.55;8.27;;;;;;;;;;5053308;28;20053;-47
2021/09/16 07:26:42;;;;;;;15.52;7.07;;;;;;;;;;5053510;28;20017;-45
2021/09/16 07:29:08;;;;;;;17.48;7.38;;;;;;;;;;5053188;28;20104;-46
2021/09/16 07:31:34;;;;;;;10.57;6.90;;;;;;;;;;5053158;28;20096;-46
2021/09/16 07:34:00;;;;;;;13.13;7.78;;;;;;;;;;5053183;28;20028;-46
2021/09/16 07:36:27;;;;;;;19.55;12.05;;;;;;;;;;5053180;28;20139;-46
2021/09/16 07:38:57;;;;;;;21.42;10.63;;;;;;;;;;5053207;28;20041;-45
2021/09/16 07:41:23;;;;;;;11.20;7.60;;;;;;;;;;5053221;28;20035;-45
2021/09/16 07:43:49;;;;;;;13.02;7.15;;;;;;;;;;5053616;28;20099;-46
2021/09/16 07:46:15;;;;;;;18.35;7.47;;;;;;;;;;5053309;28;20091;-45
2021/09/16 07:48:42;;;;;;;23.13;7.38;;;;;;;;;;5053279;28;20029;-43
2021/09/16 07:51:08;;;;;;;14.45;7.22;;;;;;;;;;5053852;28;20029;-46
2021/09/16 07:53:34;;;;;;;11.10;6.90;;;;;;;;;;5057294;28;20032;-45
2021/09/16 07:56:02;;;;;;;11.55;6.47;;;;;;;;;;5057356;28;20105;-44
2021/09/16 07:58:28;;;;;;;11.55;6.20;;;;;;;;;;5057140;28;20029;-46
2021/09/16 08:00:54;;;;;;;25.35;7.20;;;;;;;;;;5056944;28;20061;-46
2021/09/16 08:03:20;;;;;;;12.90;6.55;;;;;;;;;;5057096;28;20056;-45
2021/09/16 08:05:46;;;;;;;16.40;7.22;;;;;;;;;;5056976;28;20033;-44
2021/09/16 08:08:13;;;;;;;16.30;6.65;;;;;;;;;;5056917;28;20443;-46
2021/09/16 08:10:39;;;;;;;11.18;5.85;;;;;;;;;;5055575;28;20158;-45
2021/09/16 08:13:05;;;;;;;10.73;5.82;;;;;;;;;;5056438;28;20041;-45
2021/09/16 08:15:31;;;;;;;53.03;35.13;;;;;;;;;;5056587;28;20476;-45
2021/09/16 08:18:00;;;;;;;23.88;12.65;;;;;;;;;;5056593;28;20036;-45
2021/09/16 08:20:27;;;;;;;17.15;7.20;;;;;;;;;;5056693;28;20029;-46
2021/09/16 08:22:53;;;;;;;44.90;16.77;;;;;;;;;;5056382;28;20116;-48
2021/09/16 08:25:19;;;;;;;28.08;9.85;;;;;;;;;;5056508;28;20108;-51
2021/09/16 08:27:46;;;;;;;19.70;5.80;;;;;;;;;;5056449;28;20031;-45
2021/09/16 08:30:13;;;;;;;31.35;7.75;;;;;;;;;;5056413;28;20303;-48
2021/09/16 08:32:39;;;;;;;22.05;7.05;;;;;;;;;;5056631;28;20362;-45
2021/09/16 08:35:06;;;;;;;25.60;6.93;;;;;;;;;;5056518;28;20388;-46
2021/09/16 08:37:32;;;;;;;27.98;7.35;;;;;;;;;;5056482;28;20111;-48
2021/09/16 08:39:58;;;;;;;17.63;5.07;;;;;;;;;;5055133;28;20033;-46
2021/09/16 08:42:25;;;;;;;24.35;5.10;;;;;;;;;;5056192;28;20021;-45
2021/09/16 08:44:55;;;;;;;19.80;4.72;;;;;;;;;;5056125;28;20024;-46
2021/09/16 08:47:24;;;;;;;20.58;4.50;;;;;;;;;;5056434;28;20025;-47
2021/09/16 08:49:50;;;;;;;19.60;4.57;;;;;;;;;;5056177;28;20606;-44
2021/09/16 08:52:17;;;;;;;27.50;5.50;;;;;;;;;;5056180;28;20029;-44
2021/09/16 08:54:46;;;;;;;34.35;5.88;;;;;;;;;;5056018;28;20033;-44
2021/09/16 08:57:13;;;;;;;35.75;5.50;;;;;;;;;;5056199;28;20039;-43
2021/09/16 08:59:41;;;;;;;31.75;5.63;;;;;;;;;;5055779;28;20071;-43
2021/09/16 09:02:08;;;;;;;26.75;5.80;;;;;;;;;;5054614;28;20120;-43
2021/09/16 09:04:34;;;;;;;33.55;6.00;;;;;;;;;;5055311;28;20056;-44
2021/09/16 09:07:02;;;;;;;29.10;6.63;;;;;;;;;;5055700;28;20040;-44
2021/09/16 09:09:28;;;;;;;23.13;5.10;;;;;;;;;;5055675;28;20028;-44
2021/09/16 09:11:57;;;;;;;23.52;5.38;;;;;;;;;;5055632;28;20473;-44
2021/09/16 09:14:28;;;;;;;25.25;5.03;;;;;;;;;;5055542;28;20017;-45
2021/09/16 09:16:54;;;;;;;25.92;5.43;;;;;;;;;;5055787;28;20025;-44
2021/09/16 09:19:22;;;;;;;27.20;4.93;;;;;;;;;;5055465;28;20045;-45
2021/09/16 09:21:48;;;;;;;17.60;5.13;;;;;;;;;;5055678;28;20025;-44
2021/09/16 09:24:28;;;;;;;21.13;5.43;;;;;;;;;;5055235;28;20056;-44
2021/09/16 09:26:54;;;;;;;21.27;5.22;;;;;;;;;;5055304;28;20100;-44
2021/09/16 09:29:23;;;;;;;26.10;5.85;;;;;;;;;;5055296;28;20021;-45
2021/09/16 09:32:03;;;;;;;30.48;5.97;;;;;;;;;;5055310;28;20017;-45
2021/09/16 09:34:35;;;;;;;32.08;5.35;;;;;;;;;;5055213;28;20112;-44
2021/09/16 09:37:07;;;;;;;18.35;5.60;;;;;;;;;;5055264;28;20067;-44
2021/09/16 09:39:33;;;;;;;23.88;5.65;;;;;;;;;;5055072;28;20063;-44
2021/09/16 09:42:15;;;;;;;29.98;5.70;;;;;;;;;;5055138;28;20025;-45
2021/09/16 09:44:41;;;;;;;22.52;5.30;;;;;;;;;;5055162;28;20017;-46
2021/09/16 09:47:08;;;;;;;21.30;5.65;;;;;;;;;;5055193;28;20096;-47
2021/09/16 09:49:36;;;;;;;23.25;5.72;;;;;;;;;;5054972;28;20047;-45
2021/09/16 09:52:02;;;;;;;21.77;6.10;;;;;;;;;;5054791;28;20025;-44
2021/09/16 09:54:32;;;;;;;22.52;5.38;;;;;;;;;;5054958;28;20057;-44
2021/09/16 09:57:00;;;;;;;30.25;5.63;;;;;;;;;;5055011;28;20056;-44
2021/09/16 09:59:26;;;;;;;26.23;5.38;;;;;;;;;;5055071;28;20072;-47
2021/09/16 10:02:02;;;;;;;26.42;5.63;;;;;;;;;;5054769;28;20044;-45
2021/09/16 10:04:30;;;;;;;20.67;5.40;;;;;;;;;;5054918;28;20033;-46
2021/09/16 10:06:56;;;;;;;26.65;5.50;;;;;;;;;;5054513;28;20025;-45
2021/09/16 10:09:22;;;;;;;26.77;5.32;;;;;;;;;;5054596;28;20017;-45
2021/09/16 10:11:52;;;;;;;25.88;5.68;;;;;;;;;;5054679;28;20021;-45
2021/09/16 10:14:19;;;;;;;24.40;6.37;;;;;;;;;;5053972;28;20511;-46
2021/09/16 10:16:45;;;;;;;21.75;5.50;;;;;;;;;;5054499;28;20297;-44
2021/09/16 10:19:12;;;;;;;19.92;4.60;;;;;;;;;;5054341;28;20055;-47
2021/09/16 10:21:38;;;;;;;27.42;5.18;;;;;;;;;;5054123;28;20017;-45
2021/09/16 10:24:05;;;;;;;30.48;6.55;;;;;;;;;;5054136;28;20044;-45
2021/09/16 10:26:31;;;;;;;25.83;5.43;;;;;;;;;;5054427;28;20024;-49
2021/09/16 10:28:57;;;;;;;28.73;5.57;;;;;;;;;;5054444;28;20072;-44
2021/09/16 10:31:25;;;;;;;26.20;5.22;;;;;;;;;;5054113;28;20473;-49
2021/09/16 10:33:51;;;;;;;24.95;5.93;;;;;;;;;;5054365;28;20037;-49
2021/09/16 10:36:19;;;;;;;25.63;5.20;;;;;;;;;;5054422;28;20029;-49
2021/09/16 10:38:46;;;;;;;24.30;5.43;;;;;;;;;;5054191;28;20036;-44
2021/09/16 10:41:13;;;;;;;31.52;6.50;;;;;;;;;;5054147;28;20021;-45
2021/09/16 10:43:40;;;;;;;21.75;6.30;;;;;;;;;;5054116;28;20055;-51
2021/09/16 10:46:24;;;;;;;27.17;7.10;;;;;;;;;;5053935;28;20079;-44
2021/09/16 10:48:51;;;;;;;27.38;5.65;;;;;;;;;;5053615;28;20017;-44
2021/09/16 10:51:35;;;;;;;23.55;5.97;;;;;;;;;;5053659;28;20060;-46
2021/09/16 10:54:01;;;;;;;22.38;5.65;;;;;;;;;;5053986;28;20396;-44
2021/09/16 10:56:29;;;;;;;30.13;6.30;;;;;;;;;;5053806;28;20025;-47
2021/09/16 10:58:56;;;;;;;24.05;4.90;;;;;;;;;;5053631;28;20056;-45
2021/09/16 11:01:45;;;;;;;28.55;5.35;;;;;;;;;;5053448;28;20492;-44
2021/09/16 11:04:11;;;;;;;35.17;6.17;;;;;;;;;;5053584;28;20104;-45
2021/09/16 11:06:41;;;;;;;20.25;5.85;;;;;;;;;;5053577;28;20807;-47
2021/09/16 11:09:07;;;;;;;33.95;5.22;;;;;;;;;;5053431;28;20496;-45
2021/09/16 11:11:52;;;;;;;37.67;5.85;;;;;;;;;;5053969;28;20524;-48
2021/09/16 11:14:36;;;;;;;25.02;5.63;;;;;;;;;;5053330;28;20492;-44
2021/09/16 11:17:03;;;;;;;22.40;5.28;;;;;;;;;;5053347;28;20035;-46
2021/09/16 11:19:30;;;;;;;29.73;5.57;;;;;;;;;;5053367;28;20036;-44
2021/09/16 11:22:10;;;;;;;27.05;5.45;;;;;;;;;;5053228;28;20013;-45
2021/09/16 11:24:41;;;;;;;25.02;6.25;;;;;;;;;;5053187;28;20053;-46
2021/09/16 11:27:08;;;;;;;30.45;5.68;;;;;;;;;;5053055;28;20029;-44
2021/09/16 11:29:40;;;;;;;30.42;6.57;;;;;;;;;;5053501;28;20024;-47
2021/09/16 11:32:06;;;;;;;27.55;5.35;;;;;;;;;;5053301;28;20060;-48
2021/09/16 11:34:35;;;;;;;27.77;5.80;;;;;;;;;;5053081;28;20032;-47
2021/09/16 11:37:10;;;;;;;31.48;5.47;;;;;;;;;;5053103;28;20025;-49
2021/09/16 11:39:36;;;;;;;23.67;5.88;;;;;;;;;;5053130;28;20370;-48
2021/09/16 11:42:13;;;;;;;32.90;5.68;;;;;;;;;;5053229;28;20088;-47
2021/09/16 11:44:58;;;;;;;35.83;6.35;;;;;;;;;;5053169;28;20361;-48
2021/09/16 11:47:25;;;;;;;32.33;5.35;;;;;;;;;;5053243;28;20013;-48
2021/09/16 11:49:51;;;;;;;35.55;6.63;;;;;;;;;;5053059;28;20552;-46
2021/09/16 11:52:18;;;;;;;26.85;5.68;;;;;;;;;;5053066;28;20051;-46
2021/09/16 11:55:03;;;;;;;22.33;5.35;;;;;;;;;;5053329;28;20056;-43
2021/09/16 11:57:30;;;;;;;30.77;6.10;;;;;;;;;;5053330;28;20025;-49
2021/09/16 11:59:58;;;;;;;27.35;6.32;;;;;;;;;;5053063;28;20040;-43
2021/09/16 12:02:26;;;;;;;29.17;5.88;;;;;;;;;;5053561;28;20101;-43
2021/09/16 12:04:52;;;;;;;32.47;5.88;;;;;;;;;;5053269;28;20029;-44
2021/09/16 12:07:18;;;;;;;18.95;5.13;;;;;;;;;;5052948;28;20033;-43
2021/09/16 12:09:45;;;;;;;30.55;5.28;;;;;;;;;;5052975;28;20028;-44
2021/09/16 12:12:11;;;;;;;26.52;5.55;;;;;;;;;;5052958;28;20029;-44
2021/09/16 12:14:37;;;;;;;34.92;6.43;;;;;;;;;;5052990;28;20025;-44
2021/09/16 12:17:04;;;;;;;24.77;5.85;;;;;;;;;;5052830;28;20108;-45
2021/09/16 12:19:30;;;;;;;30.30;5.28;;;;;;;;;;5052719;28;20039;-44
2021/09/16 12:21:57;;;;;;;31.75;5.90;;;;;;;;;;5053102;28;20096;-45
2021/09/16 12:24:27;;;;;;;26.95;6.13;;;;;;;;;;5052667;28;20049;-44
2021/09/16 12:26:54;;;;;;;21.80;5.65;;;;;;;;;;5053064;28;20025;-44
2021/09/16 12:29:23;;;;;;;28.05;6.10;;;;;;;;;;5052892;28;20032;-44
2021/09/16 12:32:00;;;;;;;33.70;6.18;;;;;;;;;;5052647;28;20384;-44
2021/09/16 12:34:31;;;;;;;23.50;5.15;;;;;;;;;;5052847;28;20029;-44
2021/09/16 12:36:58;;;;;;;19.70;4.72;;;;;;;;;;5052675;28;20036;-44
2021/09/16 12:39:25;;;;;;;30.00;5.40;;;;;;;;;;5055257;28;20127;-46
2021/09/16 12:41:52;;;;;;;24.63;5.05;;;;;;;;;;5056137;28;20392;-44
2021/09/16 12:44:23;;;;;;;34.83;6.00;;;;;;;;;;5056192;28;20025;-45
2021/09/16 12:46:54;;;;;;;24.45;6.53;;;;;;;;;;5055716;28;20028;-44
2021/09/16 12:49:20;;;;;;;;;;;;;;;;;;5056516;28;20366;-44
2021/09/16 12:51:46;;;;;;;28.75;6.88;;;;;;;;;;5055182;28;19954;-44
2021/09/16 12:54:22;;;;;;;25.52;6.32;;;;;;;;;;5055901;28;20368;-44
2021/09/16 12:56:49;;;;;;;32.08;6.65;;;;;;;;;;5053100;28;20100;-43
2021/09/16 12:59:24;;;;;;;25.25;6.75;;;;;;;;;;5055258;28;20050;-49
2021/09/16 13:02:05;;;;;;;37.35;10.57;;;;;;;;;;5053060;28;20024;-50
2021/09/16 13:04:46;;;;;;;34.30;13.60;;;;;;;;;;5052426;28;20071;-51
2021/09/16 13:07:13;;;;;;;32.97;10.00;;;;;;;;;;5052614;28;20033;-47
2021/09/16 13:09:39;;;;;;;29.02;9.57;;;;;;;;;;5054845;28;20024;-47
2021/09/16 13:12:12;;;;;;;44.08;7.43;;;;;;;;;;5055056;28;20028;-46
2021/09/16 13:14:38;;;;;;;27.23;6.13;;;;;;;;;;5055116;28;20035;-49
2021/09/16 13:17:04;;;;;;;25.02;4.93;;;;;;;;;;5054726;28;20035;-47
2021/09/16 13:19:30;;;;;;;28.77;6.13;;;;;;;;;;5054539;28;20037;-46
2021/09/16 13:21:56;;;;;;;24.77;4.78;;;;;;;;;;5054153;28;20017;-49
2021/09/16 13:24:22;;;;;;;22.30;5.60;;;;;;;;;;5053835;28;20052;-49
2021/09/16 13:26:48;;;;;;;30.27;8.00;;;;;;;;;;5053972;28;20029;-44
2021/09/16 13:29:14;;;;;;;37.88;12.45;;;;;;;;;;5052899;28;20025;-50
2021/09/16 13:31:41;;;;;;;48.03;24.02;;;;;;;;;;5053920;28;20013;-44
2021/09/16 13:34:07;;;;;;;36.42;11.98;;;;;;;;;;5053710;28;20356;-42
2021/09/16 13:36:37;;;;;;;30.38;9.15;;;;;;;;;;5053640;28;20064;-49
2021/09/16 13:39:03;;;;;;;26.27;6.53;;;;;;;;;;5053601;28;20040;-51
2021/09/16 13:41:29;;;;;;;29.75;9.02;;;;;;;;;;5053631;28;20032;-48
2021/09/16 13:43:55;;;;;;;40.25;13.75;;;;;;;;;;5051069;28;20029;-43
2021/09/16 13:46:21;;;;;;;30.05;9.52;;;;;;;;;;5053763;28;20021;-49
2021/09/16 13:48:48;;;;;;;34.67;9.40;;;;;;;;;;5053862;28;20031;-44
2021/09/16 13:51:14;;;;;;;45.47;12.82;;;;;;;;;;5053964;28;20029;-47
2021/09/16 13:53:42;;;;;;;28.35;9.65;;;;;;;;;;5054139;28;20426;-48
2021/09/16 13:56:08;;;;;;;47.28;18.10;;;;;;;;;;5054492;28;20042;-44
2021/09/16 13:58:34;;;;;;;33.03;13.00;;;;;;;;;;5052826;28;20033;-48
2021/09/16 14:01:00;;;;;;;27.67;6.78;;;;;;;;;;5054571;28;20021;-43
2021/09/16 14:03:28;;;;;;;25.05;5.63;;;;;;;;;;5054064;28;20079;-51
2021/09/16 14:05:57;;;;;;;25.75;5.43;;;;;;;;;;5054086;28;20021;-47
2021/09/16 14:08:23;;;;;;;30.83;5.93;;;;;;;;;;5053959;28;20017;-47
2021/09/16 14:10:49;;;;;;;29.40;5.82;;;;;;;;;;5054027;28;20021;-50
2021/09/16 14:13:15;;;;;;;28.80;8.60;;;;;;;;;;5053494;28;20491;-47
2021/09/16 14:15:42;;;;;;;22.52;7.47;;;;;;;;;;5054018;28;20373;-47
2021/09/16 14:18:08;;;;;;;30.02;6.65;;;;;;;;;;5053779;28;20039;-46
2021/09/16 14:20:36;;;;;;;25.27;7.57;;;;;;;;;;5054354;28;20035;-44
2021/09/16 14:23:02;;;;;;;32.67;6.85;;;;;;;;;;5054062;28;20044;-45
2021/09/16 14:25:29;;;;;;;24.75;6.20;;;;;;;;;;5054196;28;20064;-46